sensor_id;sensor_type;location;lat;lon;timestamp;P1;durP1;ratioP1;P2;durP2;ratioP2
33421;SDS011;19763;55.798;37.782;2023-02-15T00:01:28;4.35;;;1.50;;
33421;SDS011;19763;55.798;37.782;2023-02-15T00:03:54;3.67;;;1.55;;
33421;SDS011;19763;55.798;37.782;2023-02-15T00:06:19;2.90;;;1.60;;
33421;SDS011;19763;55.798;37.782;2023-02-15T00:08:45;3.88;;;1.50;;
33421;SDS011;19763;55.798;37.782;2023-02-15T00:11:12;2.53;;;1.60;;
33421;SDS011;19763;55.798;37.782;2023-02-15T00:13:39;3.60;;;1.63;;
33421;SDS011;19763;55.798;37.782;2023-02-15T00:16:11;3.65;;;1.60;;
33421;SDS011;19763;55.798;37.782;2023-02-15T00:18:40;3.80;;;1.30;;
33421;SDS011;19763;55.798;37.782;2023-02-15T00:21:07;3.08;;;1.40;;
33421;SDS011;19763;55.798;37.782;2023-02-15T00:23:34;3.22;;;1.60;;
33421;SDS011;19763;55.798;37.782;2023-02-15T00:26:07;5.55;;;1.88;;
33421;SDS011;19763;55.798;37.782;2023-02-15T00:28:35;4.43;;;1.52;;
33421;SDS011;19763;55.798;37.782;2023-02-15T00:31:08;3.28;;;1.55;;
33421;SDS011;19763;55.798;37.782;2023-02-15T00:33:35;3.72;;;1.60;;
33421;SDS011;19763;55.798;37.782;2023-02-15T00:36:02;3.72;;;1.58;;
33421;SDS011;19763;55.798;37.782;2023-02-15T00:38:30;4.13;;;1.77;;
33421;SDS011;19763;55.798;37.782;2023-02-15T00:40:57;3.17;;;1.38;;
33421;SDS011;19763;55.798;37.782;2023-02-15T00:43:27;4.65;;;1.40;;
33421;SDS011;19763;55.798;37.782;2023-02-15T00:45:55;2.60;;;1.33;;
33421;SDS011;19763;55.798;37.782;2023-02-15T00:48:21;4.43;;;1.65;;
33421;SDS011;19763;55.798;37.782;2023-02-15T00:50:48;4.97;;;1.55;;
33421;SDS011;19763;55.798;37.782;2023-02-15T00:53:16;3.78;;;1.67;;
33421;SDS011;19763;55.798;37.782;2023-02-15T00:55:41;2.08;;;1.30;;
33421;SDS011;19763;55.798;37.782;2023-02-15T00:58:08;3.17;;;1.52;;
33421;SDS011;19763;55.798;37.782;2023-02-15T01:00:34;3.10;;;1.45;;
33421;SDS011;19763;55.798;37.782;2023-02-15T01:03:01;4.22;;;1.40;;
33421;SDS011;19763;55.798;37.782;2023-02-15T01:05:27;5.80;;;1.92;;
33421;SDS011;19763;55.798;37.782;2023-02-15T01:07:54;5.15;;;1.73;;
33421;SDS011;19763;55.798;37.782;2023-02-15T01:10:20;4.65;;;1.67;;
33421;SDS011;19763;55.798;37.782;2023-02-15T01:12:46;5.47;;;1.90;;
33421;SDS011;19763;55.798;37.782;2023-02-15T01:15:11;5.30;;;1.90;;
33421;SDS011;19763;55.798;37.782;2023-02-15T01:17:37;6.28;;;1.98;;
33421;SDS011;19763;55.798;37.782;2023-02-15T01:20:03;5.85;;;1.83;;
33421;SDS011;19763;55.798;37.782;2023-02-15T01:22:29;4.75;;;1.83;;
33421;SDS011;19763;55.798;37.782;2023-02-15T01:24:55;3.03;;;1.88;;
33421;SDS011;19763;55.798;37.782;2023-02-15T01:27:20;3.05;;;1.48;;
33421;SDS011;19763;55.798;37.782;2023-02-15T01:29:46;5.18;;;2.10;;
33421;SDS011;19763;55.798;37.782;2023-02-15T01:32:12;4.93;;;1.63;;
33421;SDS011;19763;55.798;37.782;2023-02-15T01:34:38;4.60;;;1.52;;
33421;SDS011;19763;55.798;37.782;2023-02-15T01:37:03;4.07;;;1.58;;
33421;SDS011;19763;55.798;37.782;2023-02-15T01:39:29;4.60;;;1.60;;
33421;SDS011;19763;55.798;37.782;2023-02-15T01:41:55;2.28;;;1.38;;
33421;SDS011;19763;55.798;37.782;2023-02-15T01:47:08;6.60;;;1.88;;
33421;SDS011;19763;55.798;37.782;2023-02-15T01:49:37;6.65;;;1.77;;
33421;SDS011;19763;55.798;37.782;2023-02-15T01:52:08;3.92;;;1.25;;
33421;SDS011;19763;55.798;37.782;2023-02-15T01:54:35;4.60;;;1.65;;
33421;SDS011;19763;55.798;37.782;2023-02-15T01:57:13;7.68;;;2.42;;
33421;SDS011;19763;55.798;37.782;2023-02-15T01:59:44;3.88;;;1.60;;
33421;SDS011;19763;55.798;37.782;2023-02-15T02:02:13;2.38;;;1.20;;
33421;SDS011;19763;55.798;37.782;2023-02-15T02:04:43;4.03;;;1.65;;
33421;SDS011;19763;55.798;37.782;2023-02-15T02:07:14;3.15;;;1.52;;
33421;SDS011;19763;55.798;37.782;2023-02-15T02:09:44;6.05;;;1.65;;
33421;SDS011;19763;55.798;37.782;2023-02-15T02:12:10;6.10;;;1.85;;
33421;SDS011;19763;55.798;37.782;2023-02-15T02:14:36;4.85;;;1.67;;
33421;SDS011;19763;55.798;37.782;2023-02-15T02:17:11;5.65;;;1.77;;
33421;SDS011;19763;55.798;37.782;2023-02-15T02:36:05;6.07;;;1.65;;
33421;SDS011;19763;55.798;37.782;2023-02-15T02:39:04;4.50;;;1.42;;
33421;SDS011;19763;55.798;37.782;2023-02-15T02:41:53;4.93;;;1.65;;
33421;SDS011;19763;55.798;37.782;2023-02-15T02:47:22;4.07;;;1.80;;
33421;SDS011;19763;55.798;37.782;2023-02-15T02:49:58;5.40;;;2.03;;
33421;SDS011;19763;55.798;37.782;2023-02-15T02:52:42;5.05;;;1.95;;
33421;SDS011;19763;55.798;37.782;2023-02-15T02:55:10;6.20;;;2.10;;
33421;SDS011;19763;55.798;37.782;2023-02-15T02:57:48;6.28;;;2.25;;
33421;SDS011;19763;55.798;37.782;2023-02-15T03:00:23;4.88;;;1.90;;
33421;SDS011;19763;55.798;37.782;2023-02-15T03:02:52;6.20;;;2.70;;
33421;SDS011;19763;55.798;37.782;2023-02-15T03:05:32;6.32;;;2.33;;
33421;SDS011;19763;55.798;37.782;2023-02-15T03:08:02;7.55;;;2.42;;
33421;SDS011;19763;55.798;37.782;2023-02-15T03:10:31;4.03;;;2.03;;
33421;SDS011;19763;55.798;37.782;2023-02-15T03:12:59;4.90;;;2.10;;
33421;SDS011;19763;55.798;37.782;2023-02-15T03:15:27;4.93;;;2.03;;
33421;SDS011;19763;55.798;37.782;2023-02-15T03:18:16;5.32;;;2.60;;
33421;SDS011;19763;55.798;37.782;2023-02-15T03:20:45;6.28;;;2.22;;
33421;SDS011;19763;55.798;37.782;2023-02-15T03:23:13;5.70;;;2.03;;
33421;SDS011;19763;55.798;37.782;2023-02-15T03:25:46;7.20;;;2.65;;
33421;SDS011;19763;55.798;37.782;2023-02-15T03:28:29;4.38;;;2.10;;
33421;SDS011;19763;55.798;37.782;2023-02-15T03:31:01;6.70;;;1.98;;
33421;SDS011;19763;55.798;37.782;2023-02-15T03:33:30;3.17;;;1.90;;
33421;SDS011;19763;55.798;37.782;2023-02-15T03:38:28;6.13;;;2.15;;
33421;SDS011;19763;55.798;37.782;2023-02-15T03:40:59;6.25;;;2.40;;
33421;SDS011;19763;55.798;37.782;2023-02-15T03:46:23;5.07;;;2.05;;
33421;SDS011;19763;55.798;37.782;2023-02-15T03:49:10;4.50;;;1.88;;
33421;SDS011;19763;55.798;37.782;2023-02-15T03:51:41;4.28;;;1.90;;
33421;SDS011;19763;55.798;37.782;2023-02-15T03:54:18;5.95;;;2.20;;
33421;SDS011;19763;55.798;37.782;2023-02-15T03:57:07;7.70;;;2.25;;
33421;SDS011;19763;55.798;37.782;2023-02-15T04:00:21;9.48;;;2.55;;
33421;SDS011;19763;55.798;37.782;2023-02-15T04:05:58;7.05;;;2.53;;
33421;SDS011;19763;55.798;37.782;2023-02-15T04:08:26;8.63;;;3.28;;
33421;SDS011;19763;55.798;37.782;2023-02-15T04:11:11;3.38;;;1.83;;
33421;SDS011;19763;55.798;37.782;2023-02-15T04:13:37;6.38;;;2.08;;
33421;SDS011;19763;55.798;37.782;2023-02-15T04:16:03;4.68;;;1.70;;
33421;SDS011;19763;55.798;37.782;2023-02-15T04:18:39;6.50;;;2.08;;
33421;SDS011;19763;55.798;37.782;2023-02-15T04:21:25;6.97;;;2.60;;
33421;SDS011;19763;55.798;37.782;2023-02-15T04:24:11;8.10;;;1.92;;
33421;SDS011;19763;55.798;37.782;2023-02-15T04:26:55;5.82;;;2.20;;
33421;SDS011;19763;55.798;37.782;2023-02-15T04:29:21;7.60;;;2.00;;
33421;SDS011;19763;55.798;37.782;2023-02-15T04:31:48;4.20;;;1.90;;
33421;SDS011;19763;55.798;37.782;2023-02-15T04:34:15;4.20;;;2.00;;
33421;SDS011;19763;55.798;37.782;2023-02-15T04:36:41;5.25;;;1.77;;
33421;SDS011;19763;55.798;37.782;2023-02-15T04:39:07;4.65;;;1.80;;
33421;SDS011;19763;55.798;37.782;2023-02-15T04:41:33;6.05;;;1.73;;
33421;SDS011;19763;55.798;37.782;2023-02-15T04:43:59;5.18;;;1.80;;
33421;SDS011;19763;55.798;37.782;2023-02-15T04:46:26;4.13;;;1.45;;
33421;SDS011;19763;55.798;37.782;2023-02-15T04:48:52;4.40;;;1.85;;
33421;SDS011;19763;55.798;37.782;2023-02-15T04:51:19;5.18;;;1.80;;
33421;SDS011;19763;55.798;37.782;2023-02-15T04:53:45;2.78;;;1.60;;
33421;SDS011;19763;55.798;37.782;2023-02-15T04:56:10;5.63;;;2.15;;
33421;SDS011;19763;55.798;37.782;2023-02-15T04:58:36;9.15;;;2.72;;
33421;SDS011;19763;55.798;37.782;2023-02-15T05:01:05;6.50;;;2.00;;
33421;SDS011;19763;55.798;37.782;2023-02-15T05:03:32;4.60;;;2.08;;
33421;SDS011;19763;55.798;37.782;2023-02-15T05:05:57;6.38;;;2.45;;
33421;SDS011;19763;55.798;37.782;2023-02-15T05:08:23;3.55;;;1.90;;
33421;SDS011;19763;55.798;37.782;2023-02-15T05:10:48;4.40;;;2.08;;
33421;SDS011;19763;55.798;37.782;2023-02-15T05:13:14;6.47;;;2.63;;
33421;SDS011;19763;55.798;37.782;2023-02-15T05:15:40;3.45;;;1.85;;
33421;SDS011;19763;55.798;37.782;2023-02-15T05:18:06;5.72;;;2.10;;
33421;SDS011;19763;55.798;37.782;2023-02-15T05:20:32;7.07;;;2.30;;
33421;SDS011;19763;55.798;37.782;2023-02-15T05:22:58;6.93;;;2.13;;
33421;SDS011;19763;55.798;37.782;2023-02-15T05:25:24;4.75;;;2.33;;
33421;SDS011;19763;55.798;37.782;2023-02-15T05:28:09;4.15;;;2.08;;
33421;SDS011;19763;55.798;37.782;2023-02-15T05:30:44;6.57;;;2.20;;
33421;SDS011;19763;55.798;37.782;2023-02-15T05:33:10;4.53;;;2.08;;
33421;SDS011;19763;55.798;37.782;2023-02-15T05:35:36;6.22;;;1.77;;
33421;SDS011;19763;55.798;37.782;2023-02-15T05:38:02;4.78;;;2.05;;
33421;SDS011;19763;55.798;37.782;2023-02-15T05:40:27;6.18;;;2.40;;
33421;SDS011;19763;55.798;37.782;2023-02-15T05:42:53;4.43;;;2.10;;
33421;SDS011;19763;55.798;37.782;2023-02-15T05:45:19;8.07;;;2.35;;
33421;SDS011;19763;55.798;37.782;2023-02-15T05:47:44;5.55;;;1.98;;
33421;SDS011;19763;55.798;37.782;2023-02-15T05:50:10;4.88;;;2.25;;
33421;SDS011;19763;55.798;37.782;2023-02-15T05:52:36;7.72;;;2.53;;
33421;SDS011;19763;55.798;37.782;2023-02-15T05:55:02;5.18;;;2.03;;
33421;SDS011;19763;55.798;37.782;2023-02-15T05:57:29;7.93;;;2.15;;
33421;SDS011;19763;55.798;37.782;2023-02-15T05:59:55;7.35;;;2.35;;
33421;SDS011;19763;55.798;37.782;2023-02-15T06:02:20;8.70;;;2.92;;
33421;SDS011;19763;55.798;37.782;2023-02-15T06:04:46;7.57;;;2.28;;
33421;SDS011;19763;55.798;37.782;2023-02-15T06:07:11;11.32;;;2.25;;
33421;SDS011;19763;55.798;37.782;2023-02-15T06:09:37;5.25;;;2.40;;
33421;SDS011;19763;55.798;37.782;2023-02-15T06:12:02;6.88;;;2.63;;
33421;SDS011;19763;55.798;37.782;2023-02-15T06:14:28;16.05;;;4.80;;
33421;SDS011;19763;55.798;37.782;2023-02-15T06:16:53;6.00;;;2.50;;
33421;SDS011;19763;55.798;37.782;2023-02-15T06:19:19;8.18;;;2.65;;
33421;SDS011;19763;55.798;37.782;2023-02-15T06:21:46;6.10;;;2.50;;
33421;SDS011;19763;55.798;37.782;2023-02-15T06:24:11;6.15;;;2.95;;
33421;SDS011;19763;55.798;37.782;2023-02-15T06:26:37;4.38;;;2.42;;
33421;SDS011;19763;55.798;37.782;2023-02-15T06:29:03;4.65;;;2.53;;
33421;SDS011;19763;55.798;37.782;2023-02-15T06:31:28;10.68;;;2.63;;
33421;SDS011;19763;55.798;37.782;2023-02-15T06:33:54;6.32;;;2.78;;
33421;SDS011;19763;55.798;37.782;2023-02-15T06:36:29;7.88;;;3.08;;
33421;SDS011;19763;55.798;37.782;2023-02-15T06:38:55;7.05;;;2.92;;
33421;SDS011;19763;55.798;37.782;2023-02-15T06:41:21;4.82;;;2.95;;
33421;SDS011;19763;55.798;37.782;2023-02-15T06:43:48;6.80;;;3.10;;
33421;SDS011;19763;55.798;37.782;2023-02-15T06:46:13;6.50;;;3.10;;
33421;SDS011;19763;55.798;37.782;2023-02-15T06:48:39;6.03;;;3.15;;
33421;SDS011;19763;55.798;37.782;2023-02-15T06:51:05;7.03;;;3.08;;
33421;SDS011;19763;55.798;37.782;2023-02-15T06:53:30;5.90;;;3.08;;
33421;SDS011;19763;55.798;37.782;2023-02-15T06:56:00;3.40;;;2.70;;
33421;SDS011;19763;55.798;37.782;2023-02-15T06:58:27;8.25;;;3.35;;
33421;SDS011;19763;55.798;37.782;2023-02-15T07:00:53;6.88;;;3.00;;
33421;SDS011;19763;55.798;37.782;2023-02-15T07:03:19;3.50;;;2.80;;
33421;SDS011;19763;55.798;37.782;2023-02-15T07:05:47;6.78;;;3.30;;
33421;SDS011;19763;55.798;37.782;2023-02-15T07:08:37;7.60;;;3.38;;
33421;SDS011;19763;55.798;37.782;2023-02-15T07:11:59;6.47;;;3.58;;
33421;SDS011;19763;55.798;37.782;2023-02-15T07:14:43;7.53;;;3.42;;
33421;SDS011;19763;55.798;37.782;2023-02-15T07:17:08;4.72;;;3.00;;
33421;SDS011;19763;55.798;37.782;2023-02-15T07:19:34;10.10;;;3.10;;
33421;SDS011;19763;55.798;37.782;2023-02-15T07:22:00;7.85;;;2.90;;
33421;SDS011;19763;55.798;37.782;2023-02-15T07:24:25;6.25;;;3.00;;
33421;SDS011;19763;55.798;37.782;2023-02-15T07:26:51;9.35;;;3.17;;
33421;SDS011;19763;55.798;37.782;2023-02-15T07:29:16;5.63;;;2.92;;
33421;SDS011;19763;55.798;37.782;2023-02-15T07:31:43;5.65;;;2.70;;
33421;SDS011;19763;55.798;37.782;2023-02-15T07:34:10;6.10;;;3.03;;
33421;SDS011;19763;55.798;37.782;2023-02-15T07:36:36;6.72;;;3.30;;
33421;SDS011;19763;55.798;37.782;2023-02-15T07:39:02;7.13;;;3.30;;
33421;SDS011;19763;55.798;37.782;2023-02-15T07:41:28;5.13;;;3.15;;
33421;SDS011;19763;55.798;37.782;2023-02-15T07:43:53;8.07;;;3.53;;
33421;SDS011;19763;55.798;37.782;2023-02-15T07:46:19;7.28;;;3.63;;
33421;SDS011;19763;55.798;37.782;2023-02-15T07:48:46;10.13;;;3.72;;
33421;SDS011;19763;55.798;37.782;2023-02-15T07:51:12;6.53;;;3.55;;
33421;SDS011;19763;55.798;37.782;2023-02-15T07:53:39;5.65;;;3.00;;
33421;SDS011;19763;55.798;37.782;2023-02-15T07:56:07;5.53;;;3.58;;
33421;SDS011;19763;55.798;37.782;2023-02-15T07:58:35;6.65;;;3.17;;
33421;SDS011;19763;55.798;37.782;2023-02-15T08:01:24;5.38;;;2.83;;
33421;SDS011;19763;55.798;37.782;2023-02-15T08:03:51;6.28;;;3.55;;
33421;SDS011;19763;55.798;37.782;2023-02-15T08:06:18;6.53;;;3.15;;
33421;SDS011;19763;55.798;37.782;2023-02-15T08:08:44;9.55;;;3.55;;
33421;SDS011;19763;55.798;37.782;2023-02-15T08:14:09;6.93;;;3.42;;
33421;SDS011;19763;55.798;37.782;2023-02-15T08:16:39;6.10;;;3.20;;
33421;SDS011;19763;55.798;37.782;2023-02-15T08:19:26;9.25;;;3.63;;
33421;SDS011;19763;55.798;37.782;2023-02-15T08:21:54;3.58;;;2.50;;
33421;SDS011;19763;55.798;37.782;2023-02-15T08:24:28;5.47;;;3.13;;
33421;SDS011;19763;55.798;37.782;2023-02-15T08:26:55;5.85;;;3.17;;
33421;SDS011;19763;55.798;37.782;2023-02-15T08:29:22;5.72;;;3.08;;
33421;SDS011;19763;55.798;37.782;2023-02-15T08:31:50;5.82;;;3.20;;
33421;SDS011;19763;55.798;37.782;2023-02-15T08:34:19;5.60;;;2.72;;
33421;SDS011;19763;55.798;37.782;2023-02-15T08:36:45;8.65;;;2.80;;
33421;SDS011;19763;55.798;37.782;2023-02-15T08:39:11;5.72;;;2.92;;
33421;SDS011;19763;55.798;37.782;2023-02-15T08:41:39;5.20;;;3.20;;
33421;SDS011;19763;55.798;37.782;2023-02-15T08:44:07;4.57;;;3.45;;
33421;SDS011;19763;55.798;37.782;2023-02-15T08:46:35;8.40;;;2.90;;
33421;SDS011;19763;55.798;37.782;2023-02-15T08:49:05;4.07;;;3.05;;
33421;SDS011;19763;55.798;37.782;2023-02-15T08:51:35;4.55;;;3.22;;
33421;SDS011;19763;55.798;37.782;2023-02-15T08:54:03;4.30;;;2.70;;
33421;SDS011;19763;55.798;37.782;2023-02-15T08:56:34;4.68;;;2.95;;
33421;SDS011;19763;55.798;37.782;2023-02-15T08:59:01;6.47;;;3.03;;
33421;SDS011;19763;55.798;37.782;2023-02-15T09:01:56;5.60;;;3.03;;
33421;SDS011;19763;55.798;37.782;2023-02-15T09:04:22;4.90;;;2.75;;
33421;SDS011;19763;55.798;37.782;2023-02-15T09:06:48;6.68;;;3.03;;
33421;SDS011;19763;55.798;37.782;2023-02-15T09:09:15;3.65;;;2.58;;
33421;SDS011;19763;55.798;37.782;2023-02-15T09:11:48;6.50;;;3.03;;
33421;SDS011;19763;55.798;37.782;2023-02-15T09:14:18;6.03;;;3.50;;
33421;SDS011;19763;55.798;37.782;2023-02-15T09:16:49;5.05;;;3.00;;
33421;SDS011;19763;55.798;37.782;2023-02-15T09:19:17;5.28;;;3.38;;
33421;SDS011;19763;55.798;37.782;2023-02-15T09:21:44;8.93;;;6.43;;
33421;SDS011;19763;55.798;37.782;2023-02-15T09:24:12;9.75;;;3.70;;
33421;SDS011;19763;55.798;37.782;2023-02-15T09:26:43;4.93;;;3.35;;
33421;SDS011;19763;55.798;37.782;2023-02-15T09:29:10;5.13;;;3.22;;
33421;SDS011;19763;55.798;37.782;2023-02-15T09:31:44;6.95;;;3.17;;
33421;SDS011;19763;55.798;37.782;2023-02-15T09:34:15;5.38;;;3.28;;
33421;SDS011;19763;55.798;37.782;2023-02-15T09:36:43;7.25;;;3.13;;
33421;SDS011;19763;55.798;37.782;2023-02-15T09:58:44;7.72;;;3.50;;
33421;SDS011;19763;55.798;37.782;2023-02-15T10:23:14;5.43;;;2.10;;
33421;SDS011;19763;55.798;37.782;2023-02-15T10:28:58;5.78;;;2.42;;
33421;SDS011;19763;55.798;37.782;2023-02-15T10:32:37;5.55;;;2.22;;
33421;SDS011;19763;55.798;37.782;2023-02-15T10:57:32;3.58;;;2.00;;
33421;SDS011;19763;55.798;37.782;2023-02-15T11:00:30;5.45;;;1.95;;
33421;SDS011;19763;55.798;37.782;2023-02-15T11:08:34;5.47;;;1.70;;
33421;SDS011;19763;55.798;37.782;2023-02-15T11:11:05;1.73;;;1.40;;
33421;SDS011;19763;55.798;37.782;2023-02-15T11:13:36;4.95;;;1.60;;
33421;SDS011;19763;55.798;37.782;2023-02-15T11:18:41;3.78;;;1.20;;
33421;SDS011;19763;55.798;37.782;2023-02-15T11:21:26;1.80;;;1.10;;
33421;SDS011;19763;55.798;37.782;2023-02-15T11:23:54;2.15;;;1.30;;
33421;SDS011;19763;55.798;37.782;2023-02-15T11:28:56;3.17;;;1.33;;
33421;SDS011;19763;55.798;37.782;2023-02-15T11:31:40;1.80;;;1.13;;
33421;SDS011;19763;55.798;37.782;2023-02-15T11:34:20;3.78;;;1.30;;
33421;SDS011;19763;55.798;37.782;2023-02-15T11:36:58;1.80;;;1.10;;
33421;SDS011;19763;55.798;37.782;2023-02-15T11:39:30;3.42;;;1.35;;
33421;SDS011;19763;55.798;37.782;2023-02-15T11:41:58;2.28;;;1.20;;
33421;SDS011;19763;55.798;37.782;2023-02-15T11:44:36;1.73;;;1.00;;
33421;SDS011;19763;55.798;37.782;2023-02-15T11:47:09;1.55;;;1.05;;
33421;SDS011;19763;55.798;37.782;2023-02-15T11:49:36;2.17;;;1.80;;
33421;SDS011;19763;55.798;37.782;2023-02-15T11:52:06;3.22;;;1.20;;
33421;SDS011;19763;55.798;37.782;2023-02-15T11:54:36;2.30;;;0.98;;
33421;SDS011;19763;55.798;37.782;2023-02-15T11:59:59;1.88;;;1.20;;
33421;SDS011;19763;55.798;37.782;2023-02-15T12:02:29;1.95;;;1.08;;
33421;SDS011;19763;55.798;37.782;2023-02-15T12:05:03;2.47;;;1.25;;
33421;SDS011;19763;55.798;37.782;2023-02-15T12:07:36;1.25;;;1.00;;
33421;SDS011;19763;55.798;37.782;2023-02-15T12:10:17;1.65;;;1.10;;
33421;SDS011;19763;55.798;37.782;2023-02-15T12:12:47;2.08;;;1.27;;
33421;SDS011;19763;55.798;37.782;2023-02-15T12:15:13;1.92;;;1.30;;
33421;SDS011;19763;55.798;37.782;2023-02-15T12:17:49;1.30;;;1.17;;
33421;SDS011;19763;55.798;37.782;2023-02-15T12:20:37;2.47;;;1.40;;
33421;SDS011;19763;55.798;37.782;2023-02-15T12:23:03;1.27;;;1.10;;
33421;SDS011;19763;55.798;37.782;2023-02-15T12:25:53;3.88;;;1.42;;
33421;SDS011;19763;55.798;37.782;2023-02-15T12:28:36;5.10;;;2.80;;
33421;SDS011;19763;55.798;37.782;2023-02-15T12:31:19;4.20;;;1.40;;
33421;SDS011;19763;55.798;37.782;2023-02-15T12:33:45;2.22;;;1.10;;
33421;SDS011;19763;55.798;37.782;2023-02-15T12:36:20;1.13;;;1.10;;
33421;SDS011;19763;55.798;37.782;2023-02-15T12:41:57;3.78;;;1.05;;
33421;SDS011;19763;55.798;37.782;2023-02-15T12:44:33;1.10;;;1.00;;
33421;SDS011;19763;55.798;37.782;2023-02-15T12:47:01;2.22;;;1.10;;
33421;SDS011;19763;55.798;37.782;2023-02-15T12:49:31;1.38;;;1.02;;
33421;SDS011;19763;55.798;37.782;2023-02-15T12:52:02;2.92;;;1.20;;
33421;SDS011;19763;55.798;37.782;2023-02-15T12:54:48;2.30;;;1.30;;
33421;SDS011;19763;55.798;37.782;2023-02-15T12:57:19;2.00;;;1.33;;
33421;SDS011;19763;55.798;37.782;2023-02-15T13:00:06;1.88;;;1.20;;
33421;SDS011;19763;55.798;37.782;2023-02-15T13:02:52;1.58;;;1.13;;
33421;SDS011;19763;55.798;37.782;2023-02-15T13:05:30;1.45;;;1.13;;
33421;SDS011;19763;55.798;37.782;2023-02-15T13:08:10;1.70;;;1.08;;
33421;SDS011;19763;55.798;37.782;2023-02-15T13:10:56;2.65;;;1.40;;
33421;SDS011;19763;55.798;37.782;2023-02-15T13:13:26;0.77;;;0.77;;
33421;SDS011;19763;55.798;37.782;2023-02-15T13:15:58;0.98;;;0.90;;
33421;SDS011;19763;55.798;37.782;2023-02-15T13:21:16;1.98;;;0.70;;
33421;SDS011;19763;55.798;37.782;2023-02-15T13:23:53;1.38;;;0.73;;
33421;SDS011;19763;55.798;37.782;2023-02-15T13:26:25;1.05;;;0.90;;
33421;SDS011;19763;55.798;37.782;2023-02-15T13:29:04;1.30;;;0.80;;
33421;SDS011;19763;55.798;37.782;2023-02-15T13:31:33;1.25;;;0.80;;
33421;SDS011;19763;55.798;37.782;2023-02-15T13:34:42;0.85;;;0.80;;
33421;SDS011;19763;55.798;37.782;2023-02-15T13:42:20;0.77;;;0.60;;
33421;SDS011;19763;55.798;37.782;2023-02-15T14:01:53;0.88;;;0.88;;
33421;SDS011;19763;55.798;37.782;2023-02-15T14:18:15;1.83;;;1.15;;
33421;SDS011;19763;55.798;37.782;2023-02-15T14:28:45;1.73;;;1.27;;
33421;SDS011;19763;55.798;37.782;2023-02-15T14:31:25;0.98;;;0.90;;
33421;SDS011;19763;55.798;37.782;2023-02-15T14:33:56;2.45;;;1.20;;
33421;SDS011;19763;55.798;37.782;2023-02-15T14:36:23;2.22;;;1.20;;
33421;SDS011;19763;55.798;37.782;2023-02-15T14:44:07;1.67;;;1.10;;
33421;SDS011;19763;55.798;37.782;2023-02-15T14:47:02;1.20;;;1.10;;
33421;SDS011;19763;55.798;37.782;2023-02-15T14:49:36;1.42;;;1.10;;
33421;SDS011;19763;55.798;37.782;2023-02-15T14:52:04;1.92;;;1.20;;
33421;SDS011;19763;55.798;37.782;2023-02-15T14:59:50;1.30;;;1.20;;
33421;SDS011;19763;55.798;37.782;2023-02-15T15:07:57;1.85;;;1.30;;
33421;SDS011;19763;55.798;37.782;2023-02-15T15:13:00;2.22;;;1.20;;
33421;SDS011;19763;55.798;37.782;2023-02-15T15:15:54;3.15;;;1.30;;
33421;SDS011;19763;55.798;37.782;2023-02-15T15:24:09;5.38;;;1.30;;
33421;SDS011;19763;55.798;37.782;2023-02-15T15:29:58;2.03;;;1.08;;
33421;SDS011;19763;55.798;37.782;2023-02-15T15:32:24;1.40;;;1.00;;
33421;SDS011;19763;55.798;37.782;2023-02-15T15:37:57;1.77;;;1.10;;
33421;SDS011;19763;55.798;37.782;2023-02-15T15:46:21;1.08;;;0.98;;
33421;SDS011;19763;55.798;37.782;2023-02-15T15:49:00;1.15;;;1.05;;
33421;SDS011;19763;55.798;37.782;2023-02-15T15:51:33;2.03;;;1.13;;
33421;SDS011;19763;55.798;37.782;2023-02-15T15:53:58;4.75;;;1.15;;
33421;SDS011;19763;55.798;37.782;2023-02-15T15:56:28;2.10;;;1.13;;
33421;SDS011;19763;55.798;37.782;2023-02-15T15:59:00;2.17;;;1.50;;
33421;SDS011;19763;55.798;37.782;2023-02-15T16:01:30;1.25;;;0.90;;
33421;SDS011;19763;55.798;37.782;2023-02-15T16:04:00;2.35;;;1.40;;
33421;SDS011;19763;55.798;37.782;2023-02-15T16:06:43;1.65;;;1.20;;
33421;SDS011;19763;55.798;37.782;2023-02-15T16:11:41;2.05;;;1.50;;
33421;SDS011;19763;55.798;37.782;2023-02-15T16:14:20;3.25;;;2.20;;
33421;SDS011;19763;55.798;37.782;2023-02-15T16:16:55;2.08;;;1.60;;
33421;SDS011;19763;55.798;37.782;2023-02-15T16:19:43;2.13;;;1.30;;
33421;SDS011;19763;55.798;37.782;2023-02-15T16:22:16;1.88;;;1.20;;
33421;SDS011;19763;55.798;37.782;2023-02-15T16:27:38;1.58;;;1.25;;
33421;SDS011;19763;55.798;37.782;2023-02-15T16:30:19;1.60;;;1.40;;
33421;SDS011;19763;55.798;37.782;2023-02-15T16:32:46;2.50;;;1.63;;
33421;SDS011;19763;55.798;37.782;2023-02-15T16:35:15;1.77;;;1.38;;
33421;SDS011;19763;55.798;37.782;2023-02-15T16:37:43;1.95;;;1.40;;
33421;SDS011;19763;55.798;37.782;2023-02-15T16:42:50;2.70;;;1.73;;
33421;SDS011;19763;55.798;37.782;2023-02-15T16:45:19;2.47;;;1.70;;
33421;SDS011;19763;55.798;37.782;2023-02-15T16:47:48;2.45;;;1.73;;
33421;SDS011;19763;55.798;37.782;2023-02-15T16:50:22;1.40;;;1.30;;
33421;SDS011;19763;55.798;37.782;2023-02-15T16:53:20;2.10;;;1.55;;
33421;SDS011;19763;55.798;37.782;2023-02-15T16:55:57;1.83;;;1.42;;
33421;SDS011;19763;55.798;37.782;2023-02-15T17:01:01;2.85;;;1.60;;
33421;SDS011;19763;55.798;37.782;2023-02-15T17:03:27;2.00;;;1.50;;
33421;SDS011;19763;55.798;37.782;2023-02-15T17:05:58;2.92;;;1.60;;
33421;SDS011;19763;55.798;37.782;2023-02-15T17:16:50;1.73;;;1.40;;
33421;SDS011;19763;55.798;37.782;2023-02-15T17:19:21;1.58;;;1.48;;
33421;SDS011;19763;55.798;37.782;2023-02-15T17:21:50;1.90;;;1.45;;
33421;SDS011;19763;55.798;37.782;2023-02-15T17:24:19;1.95;;;1.50;;
33421;SDS011;19763;55.798;37.782;2023-02-15T17:29:40;2.03;;;1.45;;
33421;SDS011;19763;55.798;37.782;2023-02-15T17:32:18;3.55;;;1.58;;
33421;SDS011;19763;55.798;37.782;2023-02-15T17:35:08;2.40;;;1.50;;
33421;SDS011;19763;55.798;37.782;2023-02-15T17:37:46;2.00;;;1.25;;
33421;SDS011;19763;55.798;37.782;2023-02-15T17:42:44;1.98;;;1.20;;
33421;SDS011;19763;55.798;37.782;2023-02-15T17:45:10;2.08;;;1.50;;
33421;SDS011;19763;55.798;37.782;2023-02-15T17:47:35;1.88;;;1.45;;
33421;SDS011;19763;55.798;37.782;2023-02-15T17:50:02;1.98;;;1.40;;
33421;SDS011;19763;55.798;37.782;2023-02-15T17:52:30;1.83;;;1.38;;
33421;SDS011;19763;55.798;37.782;2023-02-15T17:54:56;2.03;;;1.63;;
33421;SDS011;19763;55.798;37.782;2023-02-15T17:57:40;2.25;;;1.00;;
33421;SDS011;19763;55.798;37.782;2023-02-15T18:00:06;9.27;;;7.35;;
33421;SDS011;19763;55.798;37.782;2023-02-15T18:02:51;3.45;;;2.38;;
33421;SDS011;19763;55.798;37.782;2023-02-15T18:05:36;2.63;;;1.50;;
33421;SDS011;19763;55.798;37.782;2023-02-15T18:08:22;2.40;;;1.48;;
33421;SDS011;19763;55.798;37.782;2023-02-15T18:11:09;2.72;;;1.25;;
33421;SDS011;19763;55.798;37.782;2023-02-15T18:13:54;1.52;;;1.20;;
33421;SDS011;19763;55.798;37.782;2023-02-15T18:16:23;2.47;;;1.40;;
33421;SDS011;19763;55.798;37.782;2023-02-15T18:18:53;2.47;;;1.50;;
33421;SDS011;19763;55.798;37.782;2023-02-15T18:21:20;2.00;;;1.13;;
33421;SDS011;19763;55.798;37.782;2023-02-15T18:23:46;2.13;;;1.35;;
33421;SDS011;19763;55.798;37.782;2023-02-15T18:26:14;2.00;;;1.48;;
33421;SDS011;19763;55.798;37.782;2023-02-15T18:31:09;1.70;;;1.17;;
33421;SDS011;19763;55.798;37.782;2023-02-15T18:33:39;1.75;;;1.15;;
33421;SDS011;19763;55.798;37.782;2023-02-15T18:36:12;1.48;;;0.98;;
33421;SDS011;19763;55.798;37.782;2023-02-15T18:38:43;2.30;;;1.63;;
33421;SDS011;19763;55.798;37.782;2023-02-15T18:41:11;2.63;;;1.25;;
33421;SDS011;19763;55.798;37.782;2023-02-15T18:43:41;1.45;;;1.00;;
33421;SDS011;19763;55.798;37.782;2023-02-15T18:46:07;2.28;;;1.10;;